Time;durP1;ratioP1;P1;durP2;ratioP2;P2;SDS_P1;SDS_P2;PMS_P1;PMS_P2;Temp;Humidity;BMP_temperature;BMP_pressure;BME280_temperature;BME280_humidity;BME280_pressure;Samples;Min_cycle;Max_cycle;Signal;HPM_P1;HPM_P2
2021/06/03 00:01:14;;;;;;;10.80;5.37;;;;;;;9.04;79.49;98217.89;1729130;82;20977;-74
2021/06/03 00:03:41;;;;;;;8.18;5.65;;;;;;;9.05;77.86;98215.23;1707455;84;21066;-74
2021/06/03 00:06:09;;;;;;;7.85;5.03;;;;;;;9.07;77.53;98217.41;1707365;84;21020;-74
2021/06/03 00:08:35;;;;;;;8.98;5.30;;;;;;;9.10;77.81;98223.94;1707091;84;21024;-72
2021/06/03 00:11:10;;;;;;;7.75;4.85;;;;;;;9.14;77.16;98221.25;1698182;84;21487;-73
2021/06/03 00:13:39;;;;;;;8.73;4.72;;;;;;;9.11;77.27;98223.03;1745490;81;20985;-73
2021/06/03 00:16:12;;;;;;;10.40;5.40;;;;;;;9.11;77.35;98215.57;1737030;82;21001;-73
2021/06/03 00:18:41;;;;;;;7.33;4.70;;;;;;;9.09;77.49;98220.00;1736580;82;21384;-73
2021/06/03 00:21:09;;;;;;;7.45;4.45;;;;;;;9.09;77.57;98220.00;1741147;82;21059;-73
2021/06/03 00:23:36;;;;;;;7.28;5.03;;;;;;;9.06;77.40;98218.28;1741079;82;20996;-73
2021/06/03 00:26:04;;;;;;;6.97;5.00;;;;;;;9.06;77.47;98221.40;1737891;81;21472;-73
2021/06/03 00:28:31;;;;;;;7.60;5.05;;;;;;;9.04;77.97;98225.83;1740082;82;21386;-73
2021/06/03 00:30:58;;;;;;;7.67;4.72;;;;;;;9.01;78.46;98225.44;1740539;82;21077;-73
2021/06/03 00:33:25;;;;;;;7.30;5.50;;;;;;;9.04;77.87;98226.71;1741210;82;20997;-72
2021/06/03 00:35:52;;;;;;;7.50;5.05;;;;;;;9.02;77.92;98227.20;1741163;82;21040;-80
2021/06/03 00:38:19;;;;;;;6.28;5.12;;;;;;;8.96;78.96;98228.62;1740420;82;20999;-77
2021/06/03 00:40:45;;;;;;;9.33;5.37;;;;;;;8.94;78.94;98231.33;1739831;82;22016;-75
2021/06/03 00:43:13;;;;;;;9.43;4.42;;;;;;;9.02;79.38;98229.84;1739609;82;21047;-76
2021/06/03 00:45:40;;;;;;;9.28;4.42;;;;;;;9.05;78.89;98236.84;1736460;82;20993;-77
2021/06/03 00:48:09;;;;;;;10.55;5.00;;;;;;;9.08;78.27;98234.13;1741454;82;21393;-77
2021/06/03 00:50:40;;;;;;;11.03;5.08;;;;;;;9.09;78.33;98235.42;1741409;82;21087;-77
2021/06/03 00:53:11;;;;;;;8.78;4.72;;;;;;;9.11;78.48;98232.28;1741312;82;21037;-77
2021/06/03 00:55:41;;;;;;;6.92;4.42;;;;;;;9.18;78.35;98231.72;1741318;82;21068;-77
2021/06/03 00:58:09;;;;;;;8.60;4.95;;;;;;;9.22;78.19;98221.50;1740730;82;21064;-77
2021/06/03 01:00:37;;;;;;;5.95;3.95;;;;;;;9.19;78.10;98224.23;1741309;82;20962;-76
2021/06/03 01:03:07;;;;;;;6.12;4.53;;;;;;;9.22;77.93;98225.47;1740636;82;21117;-76
2021/06/03 01:05:41;;;;;;;9.20;4.10;;;;;;;9.28;77.82;98221.84;1741128;82;20996;-77
2021/06/03 01:08:15;;;;;;;7.37;5.30;;;;;;;9.28;77.52;98219.19;1715837;82;21115;-76
2021/06/03 01:10:56;;;;;;;9.78;5.85;;;;;;;9.29;77.22;98222.25;1741501;82;21067;-77
2021/06/03 01:13:41;;;;;;;9.60;5.70;;;;;;;9.27;76.94;98223.19;1741285;82;21454;-77
2021/06/03 01:16:13;;;;;;;9.28;5.47;;;;;;;9.26;76.50;98229.38;1741054;82;21026;-77
2021/06/03 01:18:41;;;;;;;8.25;5.42;;;;;;;9.16;76.47;98235.30;1741289;82;21008;-77
2021/06/03 01:21:13;;;;;;;6.58;5.50;;;;;;;9.09;76.53;98230.58;1716211;82;21048;-77
2021/06/03 01:24:18;;;;;;;10.60;5.20;;;;;;;9.08;77.01;98237.66;1741435;82;21088;-77
2021/06/03 01:26:45;;;;;;;;;;;;;;;9.08;76.66;98233.69;1718607;82;21084;-77
2021/06/03 01:29:15;;;;;;;10.00;4.42;;;;;;;9.07;76.62;98235.92;1728586;82;20097;-77
2021/06/03 01:31:48;;;;;;;7.62;4.60;;;;;;;9.08;76.57;98236.77;1740955;82;21053;-77
2021/06/03 01:34:19;;;;;;;8.15;4.53;;;;;;;9.09;76.49;98241.15;1740599;82;21029;-77
2021/06/03 01:36:48;;;;;;;6.25;4.97;;;;;;;9.10;76.84;98235.84;1741684;82;21497;-77
2021/06/03 01:39:16;;;;;;;6.30;4.55;;;;;;;9.12;76.69;98238.45;1716313;82;21069;-77
2021/06/03 01:41:44;;;;;;;6.72;4.25;;;;;;;9.10;77.49;98231.88;1741311;82;21048;-77
2021/06/03 01:44:13;;;;;;;5.12;4.28;;;;;;;9.10;77.28;98238.48;1741554;82;21566;-77
2021/06/03 01:46:40;;;;;;;6.45;4.35;;;;;;;9.10;76.74;98233.19;1741222;82;21013;-77
2021/06/03 01:49:08;;;;;;;6.05;3.95;;;;;;;9.11;77.57;98240.69;1741003;82;21069;-77
2021/06/03 01:51:34;;;;;;;7.15;4.12;;;;;;;9.13;76.66;98234.91;1728567;82;20993;-77
2021/06/03 01:54:02;;;;;;;5.75;4.17;;;;;;;9.15;76.74;98237.52;1741191;82;21045;-77
2021/06/03 01:56:29;;;;;;;8.25;4.92;;;;;;;9.18;76.77;98237.47;1740151;82;21017;-77
2021/06/03 01:58:58;;;;;;;7.97;4.00;;;;;;;9.17;77.08;98237.06;1734628;83;21490;-77
2021/06/03 02:01:25;;;;;;;11.30;5.67;;;;;;;9.19;77.08;98242.73;1734405;83;21024;-77
2021/06/03 02:03:51;;;;;;;6.28;4.35;;;;;;;9.20;76.40;98236.98;1734525;83;21001;-77
2021/06/03 02:06:18;;;;;;;7.37;4.08;;;;;;;9.21;76.19;98244.89;1734468;83;21533;-77
2021/06/03 02:08:45;;;;;;;6.62;3.90;;;;;;;9.23;76.17;98242.22;1734225;83;21461;-77
2021/06/03 02:11:14;;;;;;;5.50;3.90;;;;;;;9.23;76.19;98244.39;1734046;83;21009;-77
2021/06/03 02:13:54;;;;;;;5.47;3.80;;;;;;;9.24;76.45;98248.80;1734522;83;21013;-77
2021/06/03 02:16:39;;;;;;;5.12;3.77;;;;;;;9.24;75.96;98248.80;1734140;83;20990;-77
2021/06/03 02:19:11;;;;;;;6.90;3.92;;;;;;;9.27;76.03;98252.28;1734668;83;21081;-77
2021/06/03 02:21:42;;;;;;;9.45;3.95;;;;;;;9.28;76.17;98248.28;1733955;83;21431;-76
2021/06/03 02:24:10;;;;;;;7.85;4.12;;;;;;;9.30;75.93;98247.79;1734501;83;21029;-76
2021/06/03 02:26:41;;;;;;;8.10;4.50;;;;;;;9.30;76.37;98248.26;1734559;83;21041;-76
2021/06/03 02:29:11;;;;;;;5.17;3.95;;;;;;;9.29;75.86;98251.78;1734391;83;21485;-76
2021/06/03 02:31:40;;;;;;;11.38;4.47;;;;;;;9.30;75.78;98251.76;1734541;83;21028;-76
2021/06/03 02:34:07;;;;;;;7.42;4.10;;;;;;;9.30;75.83;98253.55;1734573;83;20978;-76
2021/06/03 02:36:35;;;;;;;6.53;3.98;;;;;;;9.31;75.62;98250.88;1734440;83;21129;-76
2021/06/03 02:39:06;;;;;;;5.35;4.08;;;;;;;9.33;76.08;98250.82;1734594;83;20996;-76
2021/06/03 02:41:34;;;;;;;4.85;3.70;;;;;;;9.37;75.46;98250.75;1734365;83;21140;-76
2021/06/03 02:44:01;;;;;;;7.22;3.92;;;;;;;9.42;75.35;98250.64;1734544;83;20981;-76
2021/06/03 02:46:28;;;;;;;7.72;3.70;;;;;;;9.45;75.64;98251.91;1734621;83;21481;-77
2021/06/03 02:48:56;;;;;;;5.55;4.00;;;;;;;9.48;75.28;98250.97;1734311;83;20990;-76
2021/06/03 02:51:24;;;;;;;9.18;3.72;;;;;;;9.51;75.15;98252.23;1734463;83;21089;-76
2021/06/03 02:53:51;;;;;;;5.08;3.83;;;;;;;9.51;75.02;98250.45;1734563;83;20958;-76
2021/06/03 02:56:20;;;;;;;11.30;4.22;;;;;;;9.49;74.86;98248.30;1733883;83;21451;-76
2021/06/03 02:58:47;;;;;;;8.83;4.22;;;;;;;9.48;74.75;98253.61;1718324;83;21427;-77
2021/06/03 03:01:14;;;;;;;5.17;3.25;;;;;;;9.46;75.09;98252.76;1700172;84;20992;-76
2021/06/03 03:03:41;;;;;;;4.62;3.60;;;;;;;9.47;74.93;98251.41;1714103;84;21078;-76
2021/06/03 03:06:09;;;;;;;5.37;3.62;;;;;;;9.48;75.09;98257.58;1714134;84;20991;-77
2021/06/03 03:08:35;;;;;;;6.42;3.92;;;;;;;9.50;75.26;98259.73;1714162;84;21074;-76
2021/06/03 03:11:04;;;;;;;4.97;3.95;;;;;;;9.52;74.86;98260.59;1685409;84;21035;-77
2021/06/03 03:13:32;;;;;;;7.72;3.62;;;;;;;9.56;74.96;98260.95;1685001;85;21074;-76
2021/06/03 03:16:00;;;;;;;4.97;3.72;;;;;;;9.60;74.56;98263.07;1685482;85;21480;-77
2021/06/03 03:18:27;;;;;;;4.20;3.65;;;;;;;9.61;74.71;98264.37;1685539;85;21031;-77
2021/06/03 03:20:55;;;;;;;8.13;4.03;;;;;;;9.64;74.55;98268.72;1685616;85;20991;-77
2021/06/03 03:23:23;;;;;;;9.63;4.08;;;;;;;9.67;74.56;98273.08;1685654;85;20995;-77
2021/06/03 03:25:52;;;;;;;5.22;3.72;;;;;;;9.69;74.39;98272.14;1692741;84;21047;-77
2021/06/03 03:28:18;;;;;;;7.47;3.77;;;;;;;9.71;74.62;98282.70;1714092;84;21035;-77
2021/06/03 03:30:47;;;;;;;9.43;4.37;;;;;;;9.70;74.75;98278.28;1714191;84;21038;-77
2021/06/03 03:33:17;;;;;;;6.95;4.08;;;;;;;9.71;74.57;98284.88;1714193;84;21019;-77
2021/06/03 03:35:46;;;;;;;8.35;4.00;;;;;;;9.71;74.72;98277.41;1714448;84;21086;-77
2021/06/03 03:38:19;;;;;;;6.67;3.55;;;;;;;9.68;74.49;98266.40;1711841;84;21612;-77
2021/06/03 03:40:50;;;;;;;10.05;3.92;;;;;;;9.68;74.59;98282.28;1714299;84;21114;-77
2021/06/03 03:43:18;;;;;;;7.90;3.80;;;;;;;9.68;74.60;98271.69;1714162;84;21357;-76
2021/06/03 03:45:45;;;;;;;6.37;3.85;;;;;;;9.71;74.42;98274.28;1714122;84;21059;-76
2021/06/03 03:48:12;;;;;;;7.67;4.22;;;;;;;9.75;74.18;98286.99;1714204;84;21699;-77
2021/06/03 03:50:40;;;;;;;6.60;4.03;;;;;;;9.77;74.13;98281.23;1714178;84;21083;-77
2021/06/03 03:53:09;;;;;;;7.33;4.20;;;;;;;9.82;74.22;98295.67;1714072;84;21071;-77
2021/06/03 03:55:36;;;;;;;7.60;4.40;;;;;;;9.85;74.37;98296.95;1714199;84;20971;-77
2021/06/03 03:58:04;;;;;;;6.00;3.95;;;;;;;9.86;74.44;98295.59;1729871;82;21058;-77
2021/06/03 04:00:34;;;;;;;7.00;4.20;;;;;;;9.89;74.20;98295.98;1740886;82;21016;-77
2021/06/03 04:03:06;;;;;;;6.60;4.12;;;;;;;9.92;73.83;98301.66;1739395;82;21464;-77
2021/06/03 04:05:35;;;;;;;9.95;4.62;;;;;;;9.95;73.69;98298.92;1740782;82;21004;-76
2021/06/03 04:08:06;;;;;;;6.10;3.90;;;;;;;10.03;73.53;98296.98;1740239;82;21034;-76
2021/06/03 04:10:33;;;;;;;6.53;4.55;;;;;;;10.11;73.46;98293.72;1741116;82;21519;-75
2021/06/03 04:13:01;;;;;;;6.80;3.87;;;;;;;10.18;73.50;98295.78;1740642;82;21401;-75
2021/06/03 04:15:28;;;;;;;9.80;3.33;;;;;;;10.25;73.29;98299.13;1740638;82;21421;-75
2021/06/03 04:17:56;;;;;;;5.30;3.22;;;;;;;10.33;72.76;98299.83;1740584;82;21044;-76
2021/06/03 04:20:25;;;;;;;9.13;3.77;;;;;;;10.42;72.90;98302.27;1740654;82;21019;-76
2021/06/03 04:22:53;;;;;;;7.30;3.17;;;;;;;10.50;72.05;98299.45;1740456;82;21043;-75
2021/06/03 04:25:22;;;;;;;6.37;3.60;;;;;;;10.61;72.48;98303.62;1740612;82;21039;-75
2021/06/03 04:27:49;;;;;;;4.55;3.08;;;;;;;10.63;71.13;98303.14;1740934;82;21027;-75
2021/06/03 04:30:20;;;;;;;5.95;3.85;;;;;;;10.72;71.72;98307.34;1740900;82;21042;-76
2021/06/03 04:32:48;;;;;;;8.45;4.30;;;;;;;10.76;71.11;98315.63;1740959;82;21011;-77
2021/06/03 04:35:18;;;;;;;7.03;3.52;;;;;;;10.88;71.15;98306.50;1740947;82;21420;-76
2021/06/03 04:37:46;;;;;;;8.40;4.35;;;;;;;10.99;70.94;98309.73;1740867;82;21027;-76
2021/06/03 04:40:16;;;;;;;7.35;3.77;;;;;;;11.07;70.72;98306.88;1740910;82;21007;-76
2021/06/03 04:42:45;;;;;;;5.35;3.25;;;;;;;11.14;70.09;98315.55;1740794;82;21467;-76
2021/06/03 04:45:13;;;;;;;7.33;3.50;;;;;;;11.16;69.11;98309.73;1740886;82;21409;-76
2021/06/03 04:47:42;;;;;;;5.20;3.72;;;;;;;11.19;68.83;98314.96;1740874;82;21031;-77
2021/06/03 04:50:11;;;;;;;5.42;3.62;;;;;;;11.15;68.92;98311.53;1740661;82;21019;-77
2021/06/03 04:52:38;;;;;;;5.42;3.58;;;;;;;11.17;69.27;98307.52;1740941;82;21051;-77
2021/06/03 04:55:13;;;;;;;6.97;3.92;;;;;;;11.19;69.38;98309.21;1740771;82;21015;-77
2021/06/03 04:57:41;;;;;;;7.28;3.70;;;;;;;11.24;69.51;98309.08;1738663;82;20996;-77
2021/06/03 05:00:16;;;;;;;8.13;3.62;;;;;;;11.31;69.60;98309.78;1734459;83;21063;-77
2021/06/03 05:02:43;;;;;;;5.90;3.80;;;;;;;11.35;69.32;98313.62;1734530;83;21433;-77
2021/06/03 05:05:12;;;;;;;7.45;3.75;;;;;;;11.39;69.30;98313.10;1734403;83;21399;-76
2021/06/03 05:07:40;;;;;;;7.35;4.08;;;;;;;11.42;69.27;98314.80;1734625;83;21463;-76
2021/06/03 05:10:08;;;;;;;6.00;4.05;;;;;;;11.45;69.16;98316.02;1734618;83;21446;-76
2021/06/03 05:12:35;;;;;;;6.35;3.50;;;;;;;11.48;69.21;98313.29;1734582;83;20998;-76
2021/06/03 05:15:05;;;;;;;6.05;3.70;;;;;;;11.50;69.27;98312.78;1734703;83;21010;-76
2021/06/03 05:17:32;;;;;;;5.65;3.72;;;;;;;11.55;69.30;98312.19;1705348;84;21052;-78
2021/06/03 05:19:59;;;;;;;6.33;4.10;;;;;;;11.60;69.38;98309.42;1712211;84;21049;-77
2021/06/03 05:22:26;;;;;;;6.83;3.62;;;;;;;11.63;68.72;98309.34;1712141;84;21582;-78
2021/06/03 05:24:53;;;;;;;9.98;3.22;;;;;;;11.70;68.72;98314.88;1712184;83;21012;-77
2021/06/03 05:27:19;;;;;;;5.87;3.40;;;;;;;11.75;68.51;98312.07;1712208;84;21028;-76
2021/06/03 05:29:46;;;;;;;6.67;3.70;;;;;;;11.81;68.47;98311.91;1712325;83;20987;-76
2021/06/03 05:32:13;;;;;;;6.15;3.67;;;;;;;11.89;68.03;98311.20;1712112;84;21039;-76
2021/06/03 05:34:39;;;;;;;8.60;3.67;;;;;;;11.97;67.26;98312.33;1711988;83;20968;-76
2021/06/03 05:37:06;;;;;;;6.40;3.30;;;;;;;12.09;66.67;98319.54;1712267;84;20960;-76
2021/06/03 05:39:32;;;;;;;5.62;3.62;;;;;;;12.17;66.14;98321.52;1712184;83;21072;-76
2021/06/03 05:42:01;;;;;;;7.22;3.52;;;;;;;12.26;65.84;98317.69;1712332;83;21008;-76
2021/06/03 05:44:27;;;;;;;4.95;3.33;;;;;;;12.36;65.87;98314.27;1712100;84;21027;-76
2021/06/03 05:46:54;;;;;;;4.10;3.22;;;;;;;12.45;65.25;98309.14;1712164;83;21012;-76
2021/06/03 05:49:21;;;;;;;18.75;9.53;;;;;;;12.56;65.58;98310.98;1712104;84;21059;-77
2021/06/03 05:51:48;;;;;;;13.20;8.10;;;;;;;12.68;64.99;98309.71;1712337;82;22107;-82
2021/06/03 05:54:14;;;;;;;6.90;4.37;;;;;;;12.78;64.76;98314.25;1741175;82;20987;-76
2021/06/03 05:56:41;;;;;;;6.33;3.40;;;;;;;12.86;64.53;98304.67;1741544;82;21488;-73
2021/06/03 05:59:08;;;;;;;6.45;3.30;;;;;;;12.91;63.78;98307.59;1754760;81;20964;-74
2021/06/03 06:01:35;;;;;;;5.35;2.92;;;;;;;12.98;63.92;98313.59;1757640;82;21114;-73
2021/06/03 06:06:36;;;;;;;7.78;3.10;;;;;;;13.10;63.92;98304.31;1746767;82;21079;-73
2021/06/03 06:09:06;;;;;;;4.33;2.77;;;;;;;13.22;62.72;98308.34;1740881;82;21015;-74
2021/06/03 06:11:35;;;;;;;8.80;3.20;;;;;;;13.31;61.78;98312.00;1739474;82;20984;-72
2021/06/03 06:14:03;;;;;;;4.40;2.83;;;;;;;13.40;62.07;98306.80;1740128;82;20960;-76
2021/06/03 06:16:31;;;;;;;3.65;2.65;;;;;;;13.48;60.48;98313.66;1740210;82;21468;-75
2021/06/03 06:18:58;;;;;;;6.92;2.58;;;;;;;13.59;60.55;98318.16;1740497;82;20984;-75
2021/06/03 06:21:27;;;;;;;9.43;2.72;;;;;;;13.66;61.13;98310.81;1740285;82;21012;-72
2021/06/03 06:23:54;;;;;;;4.12;2.77;;;;;;;13.74;59.34;98308.70;1740395;82;21058;-76
2021/06/03 06:26:22;;;;;;;3.77;2.70;;;;;;;13.83;59.72;98306.18;1740164;82;21464;-75
2021/06/03 06:28:49;;;;;;;3.20;2.60;;;;;;;13.93;60.04;98306.69;1740493;82;21058;-75
2021/06/03 06:31:17;;;;;;;4.03;2.90;;;;;;;14.00;59.54;98302.88;1740444;82;20969;-75
2021/06/03 06:33:44;;;;;;;5.85;3.25;;;;;;;14.10;56.96;98304.25;1740525;82;21023;-76
2021/06/03 06:36:11;;;;;;;4.47;3.42;;;;;;;14.18;56.87;98304.39;1740367;82;21075;-74
2021/06/03 06:38:39;;;;;;;6.80;2.80;;;;;;;14.26;58.45;98304.97;1740382;82;21035;-77
2021/06/03 06:41:07;;;;;;;5.62;2.52;;;;;;;14.33;58.65;98306.45;1740426;82;21067;-78
2021/06/03 06:43:35;;;;;;;4.35;2.95;;;;;;;14.43;58.23;98301.63;1740409;82;21001;-77
2021/06/03 06:46:04;;;;;;;4.22;2.58;;;;;;;14.52;57.41;98309.71;1740655;82;21020;-76
2021/06/03 06:48:32;;;;;;;2.37;2.17;;;;;;;14.58;52.68;98299.27;1740044;82;21055;-76
2021/06/03 06:53:40;;;;;;;6.55;2.85;;;;;;;14.65;54.47;98305.62;1744230;82;21027;-75
2021/06/03 06:56:07;;;;;;;2.72;2.30;;;;;;;14.68;55.30;98302.41;1739998;82;20969;-76
2021/06/03 06:58:33;;;;;;;4.10;2.50;;;;;;;14.69;54.96;98302.84;1709032;83;21136;-74
2021/06/03 07:01:02;;;;;;;4.22;2.60;;;;;;;14.72;53.92;98311.58;1709453;84;21341;-75
2021/06/03 07:03:28;;;;;;;4.17;2.50;;;;;;;14.79;53.42;98313.56;1679189;84;21012;-74
2021/06/03 07:05:55;;;;;;;5.03;2.65;;;;;;;14.86;53.60;98311.50;1714324;82;20967;-72
2021/06/03 07:08:21;;;;;;;2.75;2.20;;;;;;;14.90;54.24;98305.95;1722358;82;20961;-72
2021/06/03 07:10:50;;;;;;;6.53;2.67;;;;;;;14.94;54.43;98302.69;1746219;81;21514;-72
2021/06/03 07:13:18;;;;;;;5.72;2.30;;;;;;;15.01;53.70;98308.63;1743557;82;21464;-79
2021/06/03 07:15:45;;;;;;;3.77;2.60;;;;;;;15.05;53.90;98303.56;1739141;82;20920;-71
2021/06/03 07:18:13;;;;;;;4.35;2.90;;;;;;;15.13;52.80;98300.56;1741180;82;20975;-73
2021/06/03 07:20:41;;;;;;;3.20;2.40;;;;;;;15.20;52.16;98307.36;1710030;84;20987;-72
2021/06/03 07:23:07;;;;;;;5.55;2.70;;;;;;;15.30;53.86;98309.17;1710082;84;20996;-74
2021/06/03 07:25:39;;;;;;;3.85;2.37;;;;;;;15.37;52.95;98307.11;1709859;83;20948;-74
2021/06/03 07:28:06;;;;;;;5.67;2.70;;;;;;;15.39;53.19;98300.77;1745454;82;21051;-74
2021/06/03 07:30:33;;;;;;;3.67;2.52;;;;;;;15.43;52.23;98314.84;1710721;82;20944;-73
2021/06/03 07:33:00;;;;;;;3.60;2.83;;;;;;;15.52;51.31;98313.09;1709913;84;20964;-75
2021/06/03 07:35:29;;;;;;;4.62;2.35;;;;;;;15.55;52.13;98303.62;1726900;82;20983;-75
2021/06/03 07:37:56;;;;;;;4.58;2.45;;;;;;;15.61;51.68;98305.61;1740670;82;20971;-75
2021/06/03 07:40:27;;;;;;;3.65;2.40;;;;;;;15.65;51.92;98306.72;1743530;81;20924;-75
2021/06/03 07:42:54;;;;;;;4.72;2.87;;;;;;;15.71;52.75;98307.77;1741635;82;21396;-75
2021/06/03 07:45:24;;;;;;;28.47;18.00;;;;;;;15.77;52.64;98311.98;1741131;82;20915;-76
2021/06/03 07:47:53;;;;;;;5.85;2.80;;;;;;;15.84;52.28;98317.46;1737679;81;20963;-75
2021/06/03 07:50:19;;;;;;;5.20;3.22;;;;;;;15.84;52.01;98311.23;1744674;82;20971;-76
2021/06/03 07:52:46;;;;;;;6.50;2.80;;;;;;;15.84;52.45;98308.56;1733861;82;21327;-75
2021/06/03 07:55:15;;;;;;;4.65;2.75;;;;;;;15.80;51.79;98307.84;1710062;84;21091;-75
2021/06/03 07:57:45;;;;;;;5.67;2.90;;;;;;;15.81;51.16;98312.24;1711020;83;20976;-74
2021/06/03 08:00:17;;;;;;;3.30;2.40;;;;;;;15.88;50.42;98307.94;1741584;82;20924;-74
2021/06/03 08:02:45;;;;;;;4.20;2.45;;;;;;;15.95;51.60;98307.61;1738464;82;21453;-76
2021/06/03 08:05:15;;;;;;;3.92;2.40;;;;;;;16.03;51.30;98307.25;1711053;84;21333;-76
2021/06/03 08:07:42;;;;;;;3.50;2.27;;;;;;;16.14;51.65;98310.77;1714533;83;21024;-75
2021/06/03 08:10:13;;;;;;;4.75;2.80;;;;;;;16.27;52.14;98308.86;1720558;82;21416;-75
2021/06/03 08:12:40;;;;;;;5.05;2.22;;;;;;;16.43;52.15;98304.49;1726496;82;21000;-75
2021/06/03 08:15:10;;;;;;;9.63;3.00;;;;;;;16.58;48.86;98306.02;1734502;82;20923;-76
2021/06/03 08:17:37;;;;;;;7.10;3.60;;;;;;;16.63;48.49;98296.83;1723555;82;20963;-76
2021/06/03 08:20:08;;;;;;;6.00;2.58;;;;;;;16.72;49.18;98307.55;1722053;83;20976;-75
2021/06/03 08:22:35;;;;;;;4.55;2.42;;;;;;;16.78;48.04;98309.52;1732122;83;21418;-76
2021/06/03 08:25:03;;;;;;;2.92;2.37;;;;;;;16.82;45.72;98311.10;1722698;83;20930;-76
2021/06/03 08:27:29;;;;;;;9.10;3.15;;;;;;;16.84;45.62;98309.20;1742961;81;20979;-76
2021/06/03 08:29:56;;;;;;;5.22;2.30;;;;;;;16.83;45.84;98307.02;1745652;81;20943;-76
2021/06/03 08:32:23;;;;;;;3.30;2.52;;;;;;;16.88;46.25;98308.11;1731574;83;20975;-77
2021/06/03 08:34:49;;;;;;;4.17;2.37;;;;;;;16.97;46.97;98304.97;1731437;83;20943;-77
2021/06/03 08:37:16;;;;;;;4.03;2.33;;;;;;;17.04;47.18;98305.56;1731540;82;20915;-76
2021/06/03 08:39:43;;;;;;;5.45;2.30;;;;;;;17.10;45.23;98301.67;1711238;84;20936;-76
2021/06/03 08:42:13;;;;;;;2.92;2.15;;;;;;;17.20;46.10;98305.64;1737072;83;20988;-77
2021/06/03 08:44:40;;;;;;;3.90;2.27;;;;;;;17.18;44.02;98303.49;1725346;82;20936;-76
2021/06/03 08:47:08;;;;;;;4.95;2.30;;;;;;;17.28;46.01;98299.88;1713999;83;21029;-76
2021/06/03 08:49:37;;;;;;;3.90;2.55;;;;;;;17.38;46.78;98298.91;1740735;82;21011;-77
2021/06/03 08:52:07;;;;;;;5.33;2.50;;;;;;;17.53;47.14;98296.75;1707092;83;20965;-77
2021/06/03 08:54:37;;;;;;;4.50;2.45;;;;;;;17.68;47.13;98304.45;1715048;83;21027;-76
2021/06/03 08:57:10;;;;;;;5.78;2.37;;;;;;;17.84;44.90;98304.95;1715727;83;21377;-75
2021/06/03 08:59:37;;;;;;;3.87;2.45;;;;;;;17.87;45.46;98303.92;1715461;83;20968;-76
2021/06/03 09:02:05;;;;;;;6.87;2.50;;;;;;;17.94;46.49;98308.86;1716174;83;21423;-76
2021/06/03 09:04:31;;;;;;;4.97;2.55;;;;;;;18.01;45.01;98306.72;1704163;84;21475;-75
2021/06/03 09:06:58;;;;;;;10.95;2.58;;;;;;;18.16;46.93;98306.38;1704295;84;20921;-75
2021/06/03 09:09:27;;;;;;;4.70;2.67;;;;;;;18.30;47.47;98309.63;1700436;83;20972;-77
2021/06/03 09:12:14;;;;;;;6.80;2.55;;;;;;;18.46;46.88;98304.72;1713350;83;21004;-77
2021/06/03 09:14:41;;;;;;;4.80;2.17;;;;;;;18.52;44.46;98303.52;1699700;84;20956;-76
2021/06/03 09:17:10;;;;;;;3.37;2.30;;;;;;;18.43;41.14;98304.42;1702874;84;20972;-76
2021/06/03 09:19:54;;;;;;;3.08;2.20;;;;;;;18.49;41.89;98316.63;1713064;83;21003;-76
2021/06/03 09:22:41;;;;;;;2.42;2.17;;;;;;;18.48;41.52;98306.86;1709709;83;20980;-77
2021/06/03 09:25:41;;;;;;;25.23;19.50;;;;;;;18.58;42.58;98301.34;1715713;83;21003;-76
2021/06/03 09:28:27;;;;;;;7.83;2.58;;;;;;;18.72;42.71;98308.59;1708480;83;20992;-78
2021/06/03 09:31:23;;;;;;;2.80;2.45;;;;;;;18.84;41.81;98298.08;1703260;84;20944;-78
2021/06/03 09:33:57;;;;;;;3.37;2.05;;;;;;;18.98;42.28;98291.91;1715052;83;20991;-76
2021/06/03 09:36:47;;;;;;;2.47;2.20;;;;;;;19.12;42.06;98293.33;1704424;84;20968;-76
2021/06/03 09:39:27;;;;;;;4.72;2.27;;;;;;;19.36;43.06;98291.92;1702562;84;20975;-78
2021/06/03 09:42:18;;;;;;;3.70;2.20;;;;;;;19.45;39.88;98294.05;1709484;83;20978;-77
2021/06/03 09:44:55;;;;;;;2.87;2.15;;;;;;;19.58;41.73;98298.19;1712548;83;20960;-77
2021/06/03 09:47:25;;;;;;;3.15;2.33;;;;;;;19.64;41.17;98297.80;1691621;84;20940;-72
2021/06/03 09:49:58;;;;;;;5.42;2.77;;;;;;;19.61;42.58;98299.36;1687776;85;21382;-71
2021/06/03 09:52:36;;;;;;;5.12;2.02;;;;;;;19.64;41.97;98302.33;1689870;83;20977;-73
2021/06/03 09:55:07;;;;;;;5.75;2.55;;;;;;;19.61;40.64;98291.29;1702270;83;20970;-72
2021/06/03 09:57:44;;;;;;;4.92;2.40;;;;;;;19.58;42.20;98298.19;1687612;85;21000;-73
2021/06/03 10:00:21;;;;;;;5.70;2.47;;;;;;;19.63;41.15;98295.20;1715127;84;21350;-73
2021/06/03 10:02:53;;;;;;;6.12;2.30;;;;;;;19.51;39.96;98298.16;1714989;84;20973;-72
2021/06/03 10:05:22;;;;;;;5.70;2.15;;;;;;;19.49;40.76;98296.94;1714983;84;21016;-72
2021/06/03 10:08:05;;;;;;;3.65;2.30;;;;;;;19.37;39.25;98283.78;1719300;82;21378;-72
2021/06/03 10:10:34;;;;;;;4.62;2.10;;;;;;;19.37;39.42;98290.49;1743643;82;20991;-72
2021/06/03 10:13:07;;;;;;;4.97;2.60;;;;;;;19.49;39.76;98286.19;1744614;82;21444;-75
2021/06/03 10:15:39;;;;;;;3.67;2.05;;;;;;;19.70;40.91;98283.59;1744950;82;20978;-73
2021/06/03 10:18:14;;;;;;;5.78;2.30;;;;;;;19.84;39.31;98282.23;1744885;82;20980;-73
2021/06/03 10:20:53;;;;;;;5.58;3.92;;;;;;;19.86;38.66;98283.02;1744968;82;21376;-72
2021/06/03 10:23:29;;;;;;;4.65;2.00;;;;;;;19.93;38.55;98288.85;1744948;82;21139;-72
2021/06/03 10:26:04;;;;;;;2.75;2.30;;;;;;;19.83;38.35;98291.74;1744722;82;21023;-72
2021/06/03 10:28:31;;;;;;;2.12;1.92;;;;;;;19.91;39.13;98284.94;1744876;82;21425;-71
2021/06/03 10:31:07;;;;;;;3.30;2.30;;;;;;;20.12;38.65;98288.59;1744901;82;21349;-71
2021/06/03 10:33:35;;;;;;;2.70;1.92;;;;;;;20.16;38.34;98283.87;1745139;81;20980;-73
2021/06/03 10:36:05;;;;;;;4.90;2.20;;;;;;;20.44;38.12;98278.88;1744612;82;21027;-74
2021/06/03 10:38:33;;;;;;;3.52;1.82;;;;;;;20.71;37.08;98283.42;1744709;82;21062;-74
2021/06/03 10:41:05;;;;;;;2.77;2.08;;;;;;;21.00;37.92;98277.55;1744392;82;20947;-71
2021/06/03 10:43:36;;;;;;;5.87;2.22;;;;;;;21.26;36.39;98276.23;1742639;82;21043;-74
2021/06/03 10:46:07;;;;;;;5.15;2.22;;;;;;;21.49;35.90;98279.55;1742734;82;21011;-73
2021/06/03 10:48:35;;;;;;;4.92;2.05;;;;;;;21.93;34.68;98274.30;1740780;82;20948;-73
2021/06/03 10:51:08;;;;;;;3.50;2.08;;;;;;;22.36;35.16;98278.39;1742247;82;21467;-74
2021/06/03 10:53:46;;;;;;;3.80;2.00;;;;;;;22.84;35.32;98271.30;1754447;80;21001;-73
2021/06/03 10:56:18;;;;;;;4.20;2.30;;;;;;;23.03;33.44;98266.69;1762448;81;20955;-74
2021/06/03 10:58:45;;;;;;;8.55;2.20;;;;;;;23.23;33.80;98266.98;1765433;81;21471;-74
2021/06/03 11:01:15;;;;;;;5.42;2.00;;;;;;;23.36;34.32;98262.38;1765229;81;20941;-73
2021/06/03 11:03:50;;;;;;;2.70;1.90;;;;;;;23.19;33.02;98269.95;1764627;81;21014;-74
2021/06/03 11:06:27;;;;;;;3.40;1.92;;;;;;;22.98;33.14;98266.18;1763777;81;20984;-74
2021/06/03 11:09:05;;;;;;;2.85;2.00;;;;;;;23.56;33.11;98265.36;1762173;81;21438;-74
2021/06/03 11:11:38;;;;;;;3.20;2.08;;;;;;;24.30;32.21;98264.48;1764562;81;20943;-74
2021/06/03 11:14:10;;;;;;;3.55;2.08;;;;;;;24.88;31.72;98257.94;1765596;81;21037;-73
2021/06/03 11:16:42;;;;;;;5.15;2.10;;;;;;;24.97;29.33;98260.34;1760507;81;20940;-74
2021/06/03 11:19:11;;;;;;;4.03;2.00;;;;;;;24.84;29.85;98264.59;1763720;81;20942;-74
2021/06/03 11:21:47;;;;;;;4.12;2.15;;;;;;;25.20;30.60;98265.14;1760340;81;20922;-73
2021/06/03 11:24:37;;;;;;;2.67;1.98;;;;;;;25.23;29.30;98262.66;1758952;81;21353;-74
2021/06/03 11:27:10;;;;;;;8.63;1.70;;;;;;;25.03;29.45;98265.23;1762686;81;21094;-73
2021/06/03 11:29:51;;;;;;;1.80;1.70;;;;;;;25.10;30.35;98263.73;1760853;81;20966;-74
2021/06/03 11:32:22;;;;;;;4.30;1.65;;;;;;;25.47;28.58;98276.45;1760967;81;21073;-74
2021/06/03 11:34:55;;;;;;;2.20;1.67;;;;;;;26.22;27.92;98264.89;1765427;81;21430;-74
2021/06/03 11:37:29;;;;;;;5.15;1.82;;;;;;;26.22;27.92;98264.89;1765295;81;21014;-73
2021/06/03 11:40:07;;;;;;;3.00;1.55;;;;;;;26.72;27.55;98257.70;1760321;81;20962;-74
2021/06/03 11:42:42;;;;;;;3.05;1.70;;;;;;;26.37;26.22;98256.37;1760616;81;20961;-75
2021/06/03 11:45:20;;;;;;;4.37;1.87;;;;;;;26.83;27.14;98253.13;1765132;81;21070;-75
2021/06/03 11:47:55;;;;;;;2.55;1.70;;;;;;;27.15;26.64;98239.73;1764778;81;21001;-74
2021/06/03 11:50:26;;;;;;;4.45;1.95;;;;;;;27.62;26.61;98251.20;1761057;81;21340;-75
2021/06/03 11:52:59;;;;;;;3.87;1.62;;;;;;;27.65;24.79;98240.52;1766657;80;20950;-74
2021/06/03 11:55:54;;;;;;;3.27;1.60;;;;;;;27.32;25.80;98238.64;1783446;80;21397;-74